Terminal Aerodrome Forecast
Issued by NWS

Home | Current Version | Previous Version | Text Only | Print | Product List | Glossary On
Versions: 1 2 3 4 5 6 7 8 9 10 11 12
436
FTUS42 KTAE 230524
TAFDHN
TAF
KDHN 230524Z 2306/2406 21006KT P6SM SCT010
     FM231500 24010G20KT 3SM TSRA BKN025CB
     FM231800 27010G20KT P6SM BKN030
     FM240000 30007KT P6SM BKN040=

USA.gov is the U.S. government's official web portal to all federal, state and local government web resources and services.